Time;durP1;ratioP1;P1;durP2;ratioP2;P2;SDS_P1;SDS_P2;PMS_P1;PMS_P2;Temp;Humidity;BMP_temperature;BMP_pressure;BME280_temperature;BME280_humidity;BME280_pressure;Samples;Min_cycle;Max_cycle;Signal;HPM_P1;HPM_P2
2021/07/18 00:01:28;;;;;;;3.05;1.88;;;30.10;26.10;;;;;;21082270;28;20054;-73
2021/07/18 00:11:31;;;;;;;6.97;2.42;;;29.90;27.10;;;;;;21082643;28;20044;-72
2021/07/18 00:21:35;;;;;;;7.15;2.70;;;29.70;27.80;;;;;;21064197;28;20417;-68
2021/07/18 00:31:37;;;;;;;5.47;2.42;;;29.60;28.50;;;;;;21080654;28;20044;-73
2021/07/18 00:41:40;;;;;;;2.72;1.92;;;29.40;28.90;;;;;;21069773;28;20052;-70
2021/07/18 00:51:43;;;;;;;3.28;2.10;;;29.20;29.30;;;;;;21089277;28;20472;-67
2021/07/18 01:01:46;;;;;;;3.08;1.90;;;29.10;29.70;;;;;;21090417;28;20084;-66
2021/07/18 01:11:48;;;;;;;4.43;2.40;;;29.00;30.30;;;;;;21096178;28;20044;-68
2021/07/18 01:21:55;;;;;;;5.63;2.40;;;;;;;;;;21094916;28;20428;-66
2021/07/18 01:32:02;;;;;;;5.38;2.28;;;;;;;;;;21093620;28;20047;-64
2021/07/18 01:42:08;;;;;;;3.95;2.33;;;;;;;;;;21075657;28;20047;-67
2021/07/18 01:52:19;;;;;;;5.60;2.88;;;;;;;;;;21092557;28;20127;-66
2021/07/18 02:02:32;;;;;;;6.38;2.72;;;;;;;;;;21091867;28;20416;-65
2021/07/18 02:12:50;;;;;;;6.78;2.63;;;;;;;;;;21090729;28;20075;-66
2021/07/18 02:23:02;;;;;;;5.35;2.65;;;;;;;;;;21090410;28;20555;-64
2021/07/18 02:33:22;;;;;;;3.03;2.30;;;;;;;;;;21089736;28;20105;-66
2021/07/18 02:43:44;;;;;;;3.90;2.60;;;;;;;;;;21088770;28;20044;-64
2021/07/18 02:54:05;;;;;;;4.50;2.55;;;;;;;;;;21068075;28;20048;-65
2021/07/18 03:04:21;;;;;;;5.20;2.63;;;;;;;;;;21087191;28;20074;-65
2021/07/18 03:14:30;;;;;;;4.43;2.38;;;;;;;;;;21086557;28;20044;-66
2021/07/18 03:24:38;;;;;;;5.80;2.80;;;;;;;;;;21068501;28;20052;-68
2021/07/18 03:34:45;;;;;;;4.38;2.58;;;;;;;;;;21085889;28;20052;-71
2021/07/18 03:44:53;;;;;;;7.97;2.85;;;;;;;;;;21067227;28;20060;-68
2021/07/18 03:54:59;;;;;;;4.85;2.90;;;;;;;;;;21083717;28;20044;-71
2021/07/18 04:05:03;;;;;;;5.05;2.58;;;;;;;;;;21082422;28;20055;-66
2021/07/18 04:15:07;;;;;;;6.13;3.58;;;28.00;35.00;;;;;;21080808;28;20506;-64
2021/07/18 04:25:13;;;;;;;5.05;3.50;;;27.10;35.80;;;;;;21080353;28;20055;-65
2021/07/18 04:35:21;;;;;;;4.88;3.08;;;26.60;36.50;;;;;;21078951;28;20550;-68
2021/07/18 04:45:25;;;;;;;4.85;3.13;;;26.50;37.50;;;;;;21079759;28;20416;-68
2021/07/18 04:55:30;;;;;;;6.03;2.92;;;26.30;37.90;;;;;;21080220;28;20044;-68
2021/07/18 05:05:37;;;;;;;5.25;3.25;;;26.30;38.10;;;;;;21079048;28;20079;-68
2021/07/18 05:15:39;;;;;;;6.70;3.08;;;26.20;38.30;;;;;;21079456;28;20049;-66
2021/07/18 05:25:44;;;;;;;8.23;3.70;;;26.00;38.50;;;;;;21079783;28;20056;-66
2021/07/18 05:35:46;;;;;;;5.68;3.65;;;26.00;38.70;;;;;;21080110;28;20044;-66
2021/07/18 05:45:54;;;;;;;8.57;3.30;;;25.90;38.60;;;;;;21080974;28;20048;-67
2021/07/18 05:55:56;;;;;;;6.38;3.85;;;25.90;38.80;;;;;;21061524;28;20484;-64
2021/07/18 06:06:00;;;;;;;9.73;4.70;;;26.00;38.30;;;;;;21076779;28;20190;-66
2021/07/18 06:16:08;;;;;;;7.25;3.45;;;26.20;36.80;;;;;;21074851;28;20094;-67
2021/07/18 06:26:10;;;;;;;6.68;3.55;;;26.60;35.50;;;;;;21144958;28;20059;-66
2021/07/18 06:36:13;;;;;;;7.65;3.65;;;;;;;;;;21174790;28;20127;-66
2021/07/18 06:46:16;;;;;;;8.13;3.10;;;26.90;35.30;;;;;;21173593;28;20052;-68
2021/07/18 06:56:17;;;;;;;8.38;3.38;;;26.70;35.90;;;;;;21172477;28;20044;-66
2021/07/18 07:06:19;;;;;;;;;;;27.20;35.50;;;;;;21170890;28;20081;-64
2021/07/18 07:16:21;;;;;;;9.07;3.33;;;27.80;34.90;;;;;;21171170;28;19919;-70
2021/07/18 07:26:23;;;;;;;9.48;3.50;;;27.60;35.40;;;;;;21170751;28;20051;-64
2021/07/18 07:36:25;;;;;;;5.53;3.25;;;28.20;34.90;;;;;;21169849;28;20503;-65
2021/07/18 07:46:28;;;;;;;7.85;3.55;;;28.80;33.90;;;;;;21169746;28;20116;-71
2021/07/18 07:56:30;;;;;;;6.72;2.75;;;29.20;33.40;;;;;;21168997;28;20043;-65
2021/07/18 08:06:32;;;;;;;7.40;2.75;;;29.50;32.80;;;;;;21170787;28;20388;-66
2021/07/18 08:16:34;;;;;;;6.88;3.42;;;30.10;32.30;;;;;;21171633;28;20044;-66
2021/07/18 08:26:38;;;;;;;7.85;3.47;;;30.60;31.40;;;;;;21171169;28;20083;-67
2021/07/18 08:36:40;;;;;;;6.13;3.60;;;30.90;31.00;;;;;;21165736;28;20044;-66
2021/07/18 08:46:43;;;;;;;4.95;3.28;;;31.00;30.80;;;;;;21164930;28;20047;-66
2021/07/18 08:56:47;;;;;;;5.80;3.35;;;31.60;30.20;;;;;;21164370;28;20055;-67
2021/07/18 09:06:51;;;;;;;7.50;3.40;;;32.00;30.10;;;;;;21165124;28;20060;-68
2021/07/18 09:16:53;;;;;;;6.07;3.33;;;32.20;29.40;;;;;;21163553;28;20043;-67
2021/07/18 09:27:07;;;;;;;6.47;3.50;;;;;;;;;;21174778;28;20063;-70
2021/07/18 09:37:13;;;;;;;7.65;3.55;;;;;;;;;;21180692;28;20044;-68
2021/07/18 09:47:15;;;;;;;7.85;3.15;;;34.40;25.80;;;;;;21182857;28;20051;-68
2021/07/18 09:57:36;;;;;;;8.32;3.35;;;33.50;26.90;;;;;;21179478;28;20051;-68
2021/07/18 10:07:39;;;;;;;6.50;3.92;;;33.80;25.80;;;;;;21181643;28;20480;-76
2021/07/18 10:17:42;;;;;;;5.22;4.45;;;33.90;25.80;;;;;;21181963;28;20399;-71
2021/07/18 10:27:47;;;;;;;4.05;2.78;;;33.90;25.10;;;;;;21180001;28;20062;-77
2021/07/18 10:37:50;;;;;;;9.65;3.67;;;34.00;24.70;;;;;;21173241;28;20404;-77
2021/07/18 10:47:59;;;;;;;4.70;2.58;;;34.00;25.20;;;;;;21180997;28;20149;-76
2021/07/18 10:58:02;;;;;;;6.75;3.17;;;34.20;24.00;;;;;;21174108;28;20134;-77
2021/07/18 11:08:05;;;;;;;11.60;8.18;;;34.40;23.40;;;;;;21154242;28;20533;-72
2021/07/18 11:18:13;;;;;;;3.88;2.22;;;34.70;21.20;;;;;;21157096;28;20089;-68
2021/07/18 11:28:36;;;;;;;5.38;2.90;;;34.70;20.90;;;;;;21188313;28;20051;-74
2021/07/18 11:38:37;;;;;;;4.35;2.10;;;34.80;20.00;;;;;;21166644;28;20051;-65
2021/07/18 11:48:41;;;;;;;4.00;2.30;;;34.60;19.70;;;;;;21155460;28;20062;-67
2021/07/18 11:58:42;;;;;;;5.80;2.33;;;34.80;19.70;;;;;;21178245;28;20051;-71
2021/07/18 12:08:44;;;;;;;5.00;2.00;;;34.90;19.10;;;;;;21180409;28;20047;-78
2021/07/18 12:18:51;;;;;;;6.60;2.25;;;34.90;18.80;;;;;;21185277;28;20052;-67
2021/07/18 12:29:02;;;;;;;5.05;2.53;;;35.20;18.30;;;;;;21170056;28;20130;-70
2021/07/18 12:39:16;;;;;;;3.78;1.98;;;35.40;18.30;;;;;;21164970;28;20502;-67
2021/07/18 12:49:18;;;;;;;4.32;2.08;;;35.20;18.40;;;;;;21164131;28;20495;-68
2021/07/18 12:59:28;;;;;;;4.60;2.30;;;35.40;17.90;;;;;;21168846;28;20042;-68
2021/07/18 13:09:30;;;;;;;3.30;2.08;;;35.50;18.30;;;;;;21164839;28;20513;-67
2021/07/18 13:19:31;;;;;;;2.55;1.95;;;35.20;18.70;;;;;;21160899;28;20044;-70
2021/07/18 13:29:38;;;;;;;3.05;1.58;;;35.30;17.50;;;;;;21160916;28;20062;-67
2021/07/18 13:39:40;;;;;;;4.47;2.85;;;35.40;17.50;;;;;;21161825;28;20043;-65
2021/07/18 13:49:41;;;;;;;4.05;2.20;;;35.40;17.20;;;;;;21159636;28;20052;-67
2021/07/18 13:59:43;;;;;;;3.85;1.90;;;35.50;18.10;;;;;;21160432;28;20123;-67
2021/07/18 14:09:44;;;;;;;14.30;2.72;;;35.50;17.20;;;;;;21144709;28;20069;-68
2021/07/18 14:19:46;;;;;;;4.95;2.50;;;35.70;17.20;;;;;;21173402;28;20560;-67
2021/07/18 14:29:48;;;;;;;3.25;1.80;;;35.70;17.20;;;;;;21172613;28;20048;-67
2021/07/18 14:39:50;;;;;;;3.03;2.20;;;35.80;16.00;;;;;;21171926;28;20118;-66
2021/07/18 14:49:51;;;;;;;4.50;2.60;;;35.90;15.60;;;;;;21172815;28;20051;-71
2021/07/18 14:59:53;;;;;;;3.33;2.05;;;35.90;16.40;;;;;;21171546;28;20055;-66
2021/07/18 15:09:55;;;;;;;2.10;1.80;;;35.80;16.30;;;;;;21172754;28;20055;-67
2021/07/18 15:19:57;;;;;;;5.05;2.20;;;35.70;16.40;;;;;;21171862;28;20047;-67
2021/07/18 15:29:59;;;;;;;3.80;2.03;;;35.80;16.70;;;;;;21173124;28;20047;-67
2021/07/18 15:40:00;;;;;;;2.95;2.17;;;35.70;16.70;;;;;;21171525;28;20488;-68
2021/07/18 15:50:03;;;;;;;3.33;1.90;;;35.60;16.40;;;;;;21171481;28;20085;-67
2021/07/18 16:00:07;;;;;;;2.65;1.80;;;35.60;16.60;;;;;;21170877;28;20043;-69
2021/07/18 16:10:11;;;;;;;3.25;1.73;;;35.70;16.70;;;;;;21170703;28;20083;-69
2021/07/18 16:20:13;;;;;;;2.60;1.42;;;35.60;16.40;;;;;;21168288;28;20056;-71
2021/07/18 16:30:15;;;;;;;3.08;1.60;;;35.50;15.90;;;;;;21165569;28;20408;-74
2021/07/18 16:40:17;;;;;;;1.98;1.20;;;35.50;16.30;;;;;;21164939;28;20043;-71
2021/07/18 16:50:19;;;;;;;4.60;1.73;;;35.40;16.00;;;;;;21165728;28;20051;-75
2021/07/18 17:00:21;;;;;;;2.55;1.52;;;35.30;15.90;;;;;;21165580;28;20109;-76
2021/07/18 17:10:22;;;;;;;2.10;1.35;;;35.20;15.60;;;;;;21172091;28;20052;-72
2021/07/18 17:20:24;;;;;;;3.45;1.35;;;35.10;15.40;;;;;;21167735;28;20442;-67
2021/07/18 17:30:28;;;;;;;3.45;1.60;;;35.00;15.70;;;;;;21165983;28;20052;-68
2021/07/18 17:40:29;;;;;;;2.60;1.58;;;34.90;15.80;;;;;;21164136;28;20124;-77
2021/07/18 17:50:31;;;;;;;3.88;1.50;;;34.80;16.00;;;;;;21178031;28;20491;-75
2021/07/18 18:00:33;;;;;;;4.05;1.55;;;34.60;16.10;;;;;;21178431;28;20479;-72
2021/07/18 18:10:34;;;;;;;4.22;1.50;;;34.50;16.60;;;;;;21177549;28;20055;-73
2021/07/18 18:20:36;;;;;;;4.18;2.20;;;34.40;16.40;;;;;;21175436;28;20047;-66
2021/07/18 18:30:38;;;;;;;2.35;1.40;;;34.20;16.40;;;;;;21175465;28;20051;-68
2021/07/18 18:40:42;;;;;;;1.98;1.30;;;34.20;16.10;;;;;;21173580;28;20051;-67
2021/07/18 18:50:44;;;;;;;3.50;1.75;;;34.00;17.10;;;;;;21173753;28;20447;-64
2021/07/18 19:00:46;;;;;;;2.58;1.65;;;33.90;17.80;;;;;;21172029;28;20093;-70
2021/07/18 19:10:48;;;;;;;2.40;1.63;;;33.70;18.20;;;;;;21172032;28;20055;-69
2021/07/18 19:20:49;;;;;;;5.32;1.80;;;33.50;18.80;;;;;;21172052;28;20055;-70
2021/07/18 19:30:51;;;;;;;2.78;1.60;;;33.40;19.50;;;;;;21173089;28;20048;-67
2021/07/18 19:40:53;;;;;;;3.85;1.73;;;33.10;20.30;;;;;;21173266;28;20135;-69
2021/07/18 19:50:54;;;;;;;2.95;2.00;;;32.90;21.00;;;;;;21170904;28;20050;-74
2021/07/18 20:00:56;;;;;;;3.60;2.00;;;32.60;21.40;;;;;;21168775;28;20085;-67
2021/07/18 20:10:58;;;;;;;4.25;2.00;;;32.40;22.00;;;;;;21168186;28;20133;-75
2021/07/18 20:21:01;;;;;;;4.88;2.60;;;32.20;22.60;;;;;;21167595;28;20070;-68
2021/07/18 20:31:03;;;;;;;4.25;2.85;;;32.00;23.10;;;;;;21167877;28;20051;-67
2021/07/18 20:41:05;;;;;;;3.28;2.20;;;31.80;23.80;;;;;;21178423;28;20051;-72
2021/07/18 20:51:06;;;;;;;2.45;2.00;;;31.60;24.10;;;;;;21190064;28;20055;-76
2021/07/18 21:01:08;;;;;;;2.88;1.90;;;31.50;24.60;;;;;;21166190;28;20079;-75
2021/07/18 21:11:10;;;;;;;3.15;2.08;;;31.30;24.70;;;;;;21162667;28;20055;-68
2021/07/18 21:21:12;;;;;;;3.08;2.17;;;31.20;24.70;;;;;;21169931;28;20051;-68
2021/07/18 21:31:14;;;;;;;3.45;2.10;;;31.00;24.90;;;;;;21180008;28;20100;-67
2021/07/18 21:41:16;;;;;;;4.47;2.05;;;30.80;25.10;;;;;;21179134;28;20503;-67
2021/07/18 21:51:17;;;;;;;6.25;2.10;;;30.60;25.30;;;;;;21178699;28;20058;-66
2021/07/18 22:01:19;;;;;;;4.97;2.38;;;30.50;25.70;;;;;;21178443;28;20043;-68
2021/07/18 22:11:22;;;;;;;3.42;2.13;;;;;;;;;;21179396;28;20043;-69
2021/07/18 22:21:24;;;;;;;5.18;2.40;;;;;;;;;;21177082;28;20044;-66
2021/07/18 22:31:26;;;;;;;4.68;2.42;;;;;;;;;;21175568;28;20058;-66
2021/07/18 22:41:28;;;;;;;4.18;2.50;;;;;;;;;;21175061;28;20049;-65
2021/07/18 22:51:30;;;;;;;6.35;3.38;;;;;;;;;;21175166;28;20487;-66
2021/07/18 23:01:31;;;;;;;3.72;2.65;;;30.30;28.50;;;;;;21174710;28;20054;-67
2021/07/18 23:11:33;;;;;;;5.43;2.88;;;29.30;29.90;;;;;;21173806;28;20051;-67
2021/07/18 23:21:35;;;;;;;5.47;2.90;;;29.00;30.40;;;;;;21172769;28;20457;-74
2021/07/18 23:31:39;;;;;;;3.88;2.60;;;28.80;30.80;;;;;;21172933;28;20077;-69
2021/07/18 23:41:41;;;;;;;4.40;2.67;;;;;;;;;;21152766;28;20044;-75
2021/07/18 23:51:43;;;;;;;6.50;2.28;;;;;;;;;;21194214;28;20125;-66
